sensor_id;sensor_type;location;lat;lon;timestamp;P1;durP1;ratioP1;P2;durP2;ratioP2
63286;SDS011;49410;55.708;37.522;2022-08-19T00:01:15;8.25;;;3.55;;
63286;SDS011;49410;55.708;37.522;2022-08-19T00:03:40;13.15;;;3.58;;
63286;SDS011;49410;55.708;37.522;2022-08-19T00:06:06;8.82;;;4.10;;
63286;SDS011;49410;55.708;37.522;2022-08-19T00:08:32;7.85;;;3.72;;
63286;SDS011;49410;55.708;37.522;2022-08-19T00:10:57;8.85;;;4.18;;
63286;SDS011;49410;55.708;37.522;2022-08-19T00:13:23;6.57;;;3.67;;
63286;SDS011;49410;55.708;37.522;2022-08-19T00:15:48;7.95;;;3.50;;
63286;SDS011;49410;55.708;37.522;2022-08-19T00:18:14;8.80;;;3.75;;
63286;SDS011;49410;55.708;37.522;2022-08-19T00:20:39;11.98;;;4.38;;
63286;SDS011;49410;55.708;37.522;2022-08-19T00:23:05;12.10;;;4.32;;
63286;SDS011;49410;55.708;37.522;2022-08-19T00:25:32;8.85;;;4.20;;
63286;SDS011;49410;55.708;37.522;2022-08-19T00:27:58;8.85;;;4.35;;
63286;SDS011;49410;55.708;37.522;2022-08-19T00:30:24;9.88;;;4.30;;
63286;SDS011;49410;55.708;37.522;2022-08-19T00:32:52;8.52;;;3.90;;
63286;SDS011;49410;55.708;37.522;2022-08-19T00:35:21;10.20;;;4.43;;
63286;SDS011;49410;55.708;37.522;2022-08-19T00:37:47;9.38;;;4.50;;
63286;SDS011;49410;55.708;37.522;2022-08-19T00:40:14;9.50;;;3.85;;
63286;SDS011;49410;55.708;37.522;2022-08-19T00:42:40;9.93;;;3.92;;
63286;SDS011;49410;55.708;37.522;2022-08-19T00:45:13;10.65;;;4.43;;
63286;SDS011;49410;55.708;37.522;2022-08-19T00:47:42;13.43;;;5.05;;
63286;SDS011;49410;55.708;37.522;2022-08-19T00:50:08;13.07;;;4.35;;
63286;SDS011;49410;55.708;37.522;2022-08-19T00:52:38;15.48;;;4.82;;
63286;SDS011;49410;55.708;37.522;2022-08-19T00:55:10;11.23;;;4.35;;
63286;SDS011;49410;55.708;37.522;2022-08-19T00:57:40;9.48;;;4.28;;
63286;SDS011;49410;55.708;37.522;2022-08-19T01:00:10;11.95;;;4.22;;
63286;SDS011;49410;55.708;37.522;2022-08-19T01:02:39;9.95;;;4.68;;
63286;SDS011;49410;55.708;37.522;2022-08-19T01:05:06;8.70;;;4.50;;
63286;SDS011;49410;55.708;37.522;2022-08-19T01:07:35;12.52;;;4.75;;
63286;SDS011;49410;55.708;37.522;2022-08-19T01:10:04;11.00;;;4.32;;
63286;SDS011;49410;55.708;37.522;2022-08-19T01:12:32;11.75;;;4.43;;
63286;SDS011;49410;55.708;37.522;2022-08-19T01:14:59;11.68;;;4.18;;
63286;SDS011;49410;55.708;37.522;2022-08-19T01:17:24;11.10;;;4.28;;
63286;SDS011;49410;55.708;37.522;2022-08-19T01:19:50;11.90;;;4.47;;
63286;SDS011;49410;55.708;37.522;2022-08-19T01:22:25;10.90;;;4.53;;
63286;SDS011;49410;55.708;37.522;2022-08-19T01:25:05;8.73;;;4.50;;
63286;SDS011;49410;55.708;37.522;2022-08-19T01:27:38;11.80;;;5.00;;
63286;SDS011;49410;55.708;37.522;2022-08-19T01:30:09;11.02;;;4.75;;
63286;SDS011;49410;55.708;37.522;2022-08-19T01:32:38;13.15;;;5.07;;
63286;SDS011;49410;55.708;37.522;2022-08-19T01:35:03;13.57;;;4.30;;
63286;SDS011;49410;55.708;37.522;2022-08-19T01:37:29;12.57;;;4.60;;
63286;SDS011;49410;55.708;37.522;2022-08-19T01:39:56;10.43;;;4.40;;
63286;SDS011;49410;55.708;37.522;2022-08-19T01:42:21;10.70;;;4.40;;
63286;SDS011;49410;55.708;37.522;2022-08-19T01:44:47;10.85;;;4.20;;
63286;SDS011;49410;55.708;37.522;2022-08-19T01:47:13;12.10;;;4.50;;
63286;SDS011;49410;55.708;37.522;2022-08-19T01:49:39;8.95;;;4.45;;
63286;SDS011;49410;55.708;37.522;2022-08-19T01:52:05;9.25;;;4.85;;
63286;SDS011;49410;55.708;37.522;2022-08-19T01:54:30;14.00;;;4.43;;
63286;SDS011;49410;55.708;37.522;2022-08-19T01:57:01;13.13;;;4.40;;
63286;SDS011;49410;55.708;37.522;2022-08-19T01:59:32;9.32;;;4.53;;
63286;SDS011;49410;55.708;37.522;2022-08-19T02:02:01;11.50;;;4.10;;
63286;SDS011;49410;55.708;37.522;2022-08-19T02:04:29;8.63;;;3.95;;
63286;SDS011;49410;55.708;37.522;2022-08-19T02:06:54;10.50;;;4.43;;
63286;SDS011;49410;55.708;37.522;2022-08-19T02:09:20;8.57;;;4.25;;
63286;SDS011;49410;55.708;37.522;2022-08-19T02:11:45;9.38;;;4.20;;
63286;SDS011;49410;55.708;37.522;2022-08-19T02:14:11;14.90;;;4.60;;
63286;SDS011;49410;55.708;37.522;2022-08-19T02:16:36;9.45;;;4.78;;
63286;SDS011;49410;55.708;37.522;2022-08-19T02:19:03;12.48;;;4.70;;
63286;SDS011;49410;55.708;37.522;2022-08-19T02:21:29;12.25;;;5.32;;
63286;SDS011;49410;55.708;37.522;2022-08-19T02:23:55;12.80;;;4.32;;
63286;SDS011;49410;55.708;37.522;2022-08-19T02:26:21;10.35;;;4.50;;
63286;SDS011;49410;55.708;37.522;2022-08-19T02:28:46;15.95;;;4.72;;
63286;SDS011;49410;55.708;37.522;2022-08-19T02:31:14;11.25;;;4.68;;
63286;SDS011;49410;55.708;37.522;2022-08-19T02:33:43;9.77;;;4.32;;
63286;SDS011;49410;55.708;37.522;2022-08-19T02:36:09;14.85;;;4.97;;
63286;SDS011;49410;55.708;37.522;2022-08-19T02:38:36;12.93;;;6.13;;
63286;SDS011;49410;55.708;37.522;2022-08-19T02:41:06;17.50;;;4.85;;
63286;SDS011;49410;55.708;37.522;2022-08-19T02:43:43;12.43;;;5.53;;
63286;SDS011;49410;55.708;37.522;2022-08-19T02:46:12;14.02;;;4.85;;
63286;SDS011;49410;55.708;37.522;2022-08-19T02:48:48;18.02;;;5.43;;
63286;SDS011;49410;55.708;37.522;2022-08-19T02:51:16;12.32;;;5.40;;
63286;SDS011;49410;55.708;37.522;2022-08-19T02:53:45;12.55;;;4.90;;
63286;SDS011;49410;55.708;37.522;2022-08-19T02:56:11;9.85;;;4.72;;
63286;SDS011;49410;55.708;37.522;2022-08-19T02:58:37;12.68;;;4.63;;
63286;SDS011;49410;55.708;37.522;2022-08-19T03:01:03;12.45;;;4.50;;
63286;SDS011;49410;55.708;37.522;2022-08-19T03:03:29;14.52;;;4.57;;
63286;SDS011;49410;55.708;37.522;2022-08-19T03:06:08;17.33;;;4.90;;
63286;SDS011;49410;55.708;37.522;2022-08-19T03:08:36;11.35;;;4.95;;
63286;SDS011;49410;55.708;37.522;2022-08-19T03:11:02;11.70;;;5.10;;
63286;SDS011;49410;55.708;37.522;2022-08-19T03:13:28;9.77;;;4.38;;
63286;SDS011;49410;55.708;37.522;2022-08-19T03:15:54;9.77;;;4.63;;
63286;SDS011;49410;55.708;37.522;2022-08-19T03:18:19;13.90;;;5.00;;
63286;SDS011;49410;55.708;37.522;2022-08-19T03:20:46;10.80;;;5.35;;
63286;SDS011;49410;55.708;37.522;2022-08-19T03:23:13;12.88;;;4.82;;
63286;SDS011;49410;55.708;37.522;2022-08-19T03:25:41;15.68;;;4.78;;
63286;SDS011;49410;55.708;37.522;2022-08-19T03:28:09;11.50;;;4.78;;
63286;SDS011;49410;55.708;37.522;2022-08-19T03:30:35;9.68;;;4.57;;
63286;SDS011;49410;55.708;37.522;2022-08-19T03:33:01;12.57;;;4.60;;
63286;SDS011;49410;55.708;37.522;2022-08-19T03:35:27;11.18;;;4.65;;
63286;SDS011;49410;55.708;37.522;2022-08-19T03:37:53;11.95;;;4.97;;
63286;SDS011;49410;55.708;37.522;2022-08-19T03:40:18;12.00;;;4.72;;
63286;SDS011;49410;55.708;37.522;2022-08-19T03:42:44;11.82;;;4.80;;
63286;SDS011;49410;55.708;37.522;2022-08-19T03:45:11;11.75;;;4.55;;
63286;SDS011;49410;55.708;37.522;2022-08-19T03:47:37;15.88;;;5.45;;
63286;SDS011;49410;55.708;37.522;2022-08-19T03:50:05;13.25;;;5.45;;
63286;SDS011;49410;55.708;37.522;2022-08-19T03:52:31;14.80;;;4.72;;
63286;SDS011;49410;55.708;37.522;2022-08-19T03:54:56;11.63;;;4.63;;
63286;SDS011;49410;55.708;37.522;2022-08-19T03:57:22;12.60;;;4.70;;
63286;SDS011;49410;55.708;37.522;2022-08-19T03:59:47;10.82;;;4.80;;
63286;SDS011;49410;55.708;37.522;2022-08-19T04:02:13;9.90;;;4.45;;
63286;SDS011;49410;55.708;37.522;2022-08-19T04:04:40;12.55;;;4.75;;
63286;SDS011;49410;55.708;37.522;2022-08-19T04:07:08;10.60;;;4.93;;
63286;SDS011;49410;55.708;37.522;2022-08-19T04:09:35;9.07;;;4.57;;
63286;SDS011;49410;55.708;37.522;2022-08-19T04:12:01;12.98;;;5.35;;
63286;SDS011;49410;55.708;37.522;2022-08-19T04:14:31;9.50;;;4.38;;
63286;SDS011;49410;55.708;37.522;2022-08-19T04:16:58;9.52;;;4.57;;
63286;SDS011;49410;55.708;37.522;2022-08-19T04:19:25;12.23;;;4.40;;
63286;SDS011;49410;55.708;37.522;2022-08-19T04:21:52;17.60;;;5.18;;
63286;SDS011;49410;55.708;37.522;2022-08-19T04:24:19;12.25;;;4.90;;
63286;SDS011;49410;55.708;37.522;2022-08-19T04:26:46;9.90;;;4.60;;
63286;SDS011;49410;55.708;37.522;2022-08-19T04:29:17;11.52;;;4.68;;
63286;SDS011;49410;55.708;37.522;2022-08-19T04:31:47;10.48;;;5.50;;
63286;SDS011;49410;55.708;37.522;2022-08-19T04:34:14;11.52;;;4.90;;
63286;SDS011;49410;55.708;37.522;2022-08-19T04:36:42;13.65;;;5.20;;
63286;SDS011;49410;55.708;37.522;2022-08-19T04:39:16;10.85;;;5.00;;
63286;SDS011;49410;55.708;37.522;2022-08-19T04:41:43;12.18;;;5.55;;
63286;SDS011;49410;55.708;37.522;2022-08-19T04:44:29;10.32;;;4.78;;
63286;SDS011;49410;55.708;37.522;2022-08-19T04:46:58;11.15;;;4.85;;
63286;SDS011;49410;55.708;37.522;2022-08-19T04:49:25;12.00;;;5.63;;
63286;SDS011;49410;55.708;37.522;2022-08-19T04:51:52;11.23;;;5.00;;
63286;SDS011;49410;55.708;37.522;2022-08-19T04:54:19;15.60;;;5.10;;
63286;SDS011;49410;55.708;37.522;2022-08-19T04:56:51;15.65;;;5.63;;
63286;SDS011;49410;55.708;37.522;2022-08-19T04:59:18;14.18;;;4.90;;
63286;SDS011;49410;55.708;37.522;2022-08-19T05:01:45;12.02;;;5.50;;
63286;SDS011;49410;55.708;37.522;2022-08-19T05:04:14;10.05;;;5.18;;
63286;SDS011;49410;55.708;37.522;2022-08-19T05:06:40;10.18;;;4.93;;
63286;SDS011;49410;55.708;37.522;2022-08-19T05:09:05;10.68;;;5.07;;
63286;SDS011;49410;55.708;37.522;2022-08-19T05:11:32;12.77;;;4.95;;
63286;SDS011;49410;55.708;37.522;2022-08-19T05:14:04;10.90;;;5.70;;
63286;SDS011;49410;55.708;37.522;2022-08-19T05:16:29;13.65;;;5.22;;
63286;SDS011;49410;55.708;37.522;2022-08-19T05:18:55;11.68;;;4.97;;
63286;SDS011;49410;55.708;37.522;2022-08-19T05:21:40;11.35;;;5.07;;
63286;SDS011;49410;55.708;37.522;2022-08-19T05:24:26;12.82;;;5.28;;
63286;SDS011;49410;55.708;37.522;2022-08-19T05:26:52;13.88;;;5.30;;
63286;SDS011;49410;55.708;37.522;2022-08-19T05:29:21;17.10;;;5.27;;
63286;SDS011;49410;55.708;37.522;2022-08-19T05:31:47;13.45;;;5.13;;
63286;SDS011;49410;55.708;37.522;2022-08-19T05:34:14;11.57;;;5.25;;
63286;SDS011;49410;55.708;37.522;2022-08-19T05:36:43;14.45;;;5.30;;
63286;SDS011;49410;55.708;37.522;2022-08-19T05:39:11;16.55;;;5.03;;
63286;SDS011;49410;55.708;37.522;2022-08-19T05:41:43;12.50;;;4.97;;
63286;SDS011;49410;55.708;37.522;2022-08-19T05:44:09;13.20;;;5.60;;
63286;SDS011;49410;55.708;37.522;2022-08-19T05:46:38;11.20;;;5.00;;
63286;SDS011;49410;55.708;37.522;2022-08-19T05:49:05;13.27;;;5.10;;
63286;SDS011;49410;55.708;37.522;2022-08-19T05:51:32;12.73;;;5.22;;
63286;SDS011;49410;55.708;37.522;2022-08-19T05:53:59;12.35;;;4.78;;
63286;SDS011;49410;55.708;37.522;2022-08-19T05:56:25;12.32;;;5.07;;
63286;SDS011;49410;55.708;37.522;2022-08-19T05:58:51;11.05;;;5.03;;
63286;SDS011;49410;55.708;37.522;2022-08-19T06:01:19;11.38;;;4.78;;
63286;SDS011;49410;55.708;37.522;2022-08-19T06:03:45;14.10;;;4.80;;
63286;SDS011;49410;55.708;37.522;2022-08-19T06:06:11;15.05;;;5.10;;
63286;SDS011;49410;55.708;37.522;2022-08-19T06:08:39;12.10;;;4.70;;
63286;SDS011;49410;55.708;37.522;2022-08-19T06:11:39;9.55;;;4.57;;
63286;SDS011;49410;55.708;37.522;2022-08-19T06:13:57;8.95;;;4.60;;
63286;SDS011;49410;55.708;37.522;2022-08-19T06:16:26;10.55;;;5.03;;
63286;SDS011;49410;55.708;37.522;2022-08-19T06:18:53;13.98;;;5.63;;
63286;SDS011;49410;55.708;37.522;2022-08-19T06:21:20;12.88;;;4.68;;
63286;SDS011;49410;55.708;37.522;2022-08-19T06:23:47;13.73;;;4.65;;
63286;SDS011;49410;55.708;37.522;2022-08-19T06:26:14;13.27;;;4.57;;
63286;SDS011;49410;55.708;37.522;2022-08-19T06:28:40;14.70;;;4.43;;
63286;SDS011;49410;55.708;37.522;2022-08-19T06:31:08;8.60;;;4.40;;
63286;SDS011;49410;55.708;37.522;2022-08-19T06:33:34;14.60;;;5.68;;
63286;SDS011;49410;55.708;37.522;2022-08-19T06:36:00;13.18;;;4.93;;
63286;SDS011;49410;55.708;37.522;2022-08-19T06:38:26;13.40;;;4.22;;
63286;SDS011;49410;55.708;37.522;2022-08-19T06:40:59;16.08;;;4.80;;
63286;SDS011;49410;55.708;37.522;2022-08-19T06:43:26;15.20;;;5.90;;
63286;SDS011;49410;55.708;37.522;2022-08-19T06:45:51;10.18;;;4.57;;
63286;SDS011;49410;55.708;37.522;2022-08-19T06:48:16;9.55;;;4.65;;
63286;SDS011;49410;55.708;37.522;2022-08-19T06:50:43;9.35;;;4.50;;
63286;SDS011;49410;55.708;37.522;2022-08-19T06:53:08;12.85;;;4.88;;
63286;SDS011;49410;55.708;37.522;2022-08-19T06:55:34;22.20;;;5.03;;
63286;SDS011;49410;55.708;37.522;2022-08-19T06:58:03;13.95;;;4.70;;
63286;SDS011;49410;55.708;37.522;2022-08-19T07:00:29;13.75;;;4.68;;
63286;SDS011;49410;55.708;37.522;2022-08-19T07:02:55;11.95;;;5.45;;
63286;SDS011;49410;55.708;37.522;2022-08-19T07:05:20;11.10;;;4.75;;
63286;SDS011;49410;55.708;37.522;2022-08-19T07:07:46;12.55;;;4.93;;
63286;SDS011;49410;55.708;37.522;2022-08-19T07:10:11;11.77;;;4.78;;
63286;SDS011;49410;55.708;37.522;2022-08-19T07:12:37;11.35;;;4.65;;
63286;SDS011;49410;55.708;37.522;2022-08-19T07:15:03;13.05;;;4.97;;
63286;SDS011;49410;55.708;37.522;2022-08-19T07:17:31;10.50;;;5.13;;
63286;SDS011;49410;55.708;37.522;2022-08-19T07:19:57;13.43;;;4.88;;
63286;SDS011;49410;55.708;37.522;2022-08-19T07:22:23;15.00;;;5.10;;
63286;SDS011;49410;55.708;37.522;2022-08-19T07:24:49;9.70;;;4.32;;
63286;SDS011;49410;55.708;37.522;2022-08-19T07:27:15;16.83;;;5.07;;
63286;SDS011;49410;55.708;37.522;2022-08-19T07:29:41;15.93;;;4.80;;
63286;SDS011;49410;55.708;37.522;2022-08-19T07:32:07;13.23;;;5.07;;
63286;SDS011;49410;55.708;37.522;2022-08-19T07:34:34;14.20;;;5.80;;
63286;SDS011;49410;55.708;37.522;2022-08-19T07:37:02;11.63;;;4.43;;
63286;SDS011;49410;55.708;37.522;2022-08-19T07:39:32;14.52;;;5.03;;
63286;SDS011;49410;55.708;37.522;2022-08-19T07:41:58;11.10;;;4.65;;
63286;SDS011;49410;55.708;37.522;2022-08-19T07:44:25;11.55;;;5.10;;
63286;SDS011;49410;55.708;37.522;2022-08-19T07:46:54;11.88;;;4.20;;
63286;SDS011;49410;55.708;37.522;2022-08-19T07:49:21;10.05;;;4.95;;
63286;SDS011;49410;55.708;37.522;2022-08-19T07:51:58;11.85;;;4.07;;
63286;SDS011;49410;55.708;37.522;2022-08-19T07:54:27;18.27;;;5.30;;
63286;SDS011;49410;55.708;37.522;2022-08-19T07:56:54;16.10;;;4.13;;
63286;SDS011;49410;55.708;37.522;2022-08-19T07:59:20;12.07;;;4.15;;
63286;SDS011;49410;55.708;37.522;2022-08-19T08:01:47;12.48;;;3.72;;
63286;SDS011;49410;55.708;37.522;2022-08-19T08:04:14;10.85;;;4.20;;
63286;SDS011;49410;55.708;37.522;2022-08-19T08:06:58;10.27;;;4.15;;
63286;SDS011;49410;55.708;37.522;2022-08-19T08:09:55;9.40;;;3.50;;
63286;SDS011;49410;55.708;37.522;2022-08-19T08:12:22;14.27;;;4.10;;
63286;SDS011;49410;55.708;37.522;2022-08-19T08:14:54;10.43;;;3.80;;
63286;SDS011;49410;55.708;37.522;2022-08-19T08:17:21;13.38;;;3.88;;
63286;SDS011;49410;55.708;37.522;2022-08-19T08:19:49;9.48;;;4.07;;
63286;SDS011;49410;55.708;37.522;2022-08-19T08:22:17;10.02;;;5.07;;
63286;SDS011;49410;55.708;37.522;2022-08-19T08:25:09;15.00;;;3.95;;
63286;SDS011;49410;55.708;37.522;2022-08-19T08:27:48;10.65;;;4.60;;
63286;SDS011;49410;55.708;37.522;2022-08-19T08:30:22;9.15;;;4.07;;
63286;SDS011;49410;55.708;37.522;2022-08-19T08:32:50;9.70;;;4.57;;
63286;SDS011;49410;55.708;37.522;2022-08-19T08:35:19;9.57;;;4.35;;
63286;SDS011;49410;55.708;37.522;2022-08-19T08:37:45;8.70;;;4.40;;
63286;SDS011;49410;55.708;37.522;2022-08-19T08:42:45;9.73;;;3.90;;
63286;SDS011;49410;55.708;37.522;2022-08-19T08:45:19;11.02;;;4.70;;
63286;SDS011;49410;55.708;37.522;2022-08-19T08:47:47;13.60;;;4.35;;
63286;SDS011;49410;55.708;37.522;2022-08-19T08:50:21;12.85;;;4.10;;
63286;SDS011;49410;55.708;37.522;2022-08-19T08:55:31;11.85;;;4.22;;
63286;SDS011;49410;55.708;37.522;2022-08-19T09:02:55;18.00;;;3.83;;
63286;SDS011;49410;55.708;37.522;2022-08-19T09:05:23;7.65;;;3.40;;
63286;SDS011;49410;55.708;37.522;2022-08-19T09:08:03;9.00;;;3.55;;
63286;SDS011;49410;55.708;37.522;2022-08-19T09:10:49;7.93;;;3.33;;
63286;SDS011;49410;55.708;37.522;2022-08-19T09:15:45;12.15;;;4.07;;
63286;SDS011;49410;55.708;37.522;2022-08-19T09:18:15;12.73;;;3.60;;
63286;SDS011;49410;55.708;37.522;2022-08-19T09:20:42;10.00;;;3.40;;
63286;SDS011;49410;55.708;37.522;2022-08-19T09:23:07;10.18;;;3.90;;
63286;SDS011;49410;55.708;37.522;2022-08-19T09:25:33;10.25;;;3.67;;
63286;SDS011;49410;55.708;37.522;2022-08-19T09:27:59;12.80;;;3.88;;
63286;SDS011;49410;55.708;37.522;2022-08-19T09:30:28;10.07;;;4.43;;
63286;SDS011;49410;55.708;37.522;2022-08-19T09:32:58;11.07;;;4.90;;
63286;SDS011;49410;55.708;37.522;2022-08-19T09:35:25;8.57;;;3.70;;
63286;SDS011;49410;55.708;37.522;2022-08-19T09:37:51;13.25;;;4.38;;
63286;SDS011;49410;55.708;37.522;2022-08-19T09:40:17;17.17;;;4.13;;
63286;SDS011;49410;55.708;37.522;2022-08-19T09:42:44;9.57;;;4.07;;
63286;SDS011;49410;55.708;37.522;2022-08-19T09:45:12;7.53;;;3.55;;
63286;SDS011;49410;55.708;37.522;2022-08-19T09:47:38;9.93;;;4.40;;
63286;SDS011;49410;55.708;37.522;2022-08-19T09:50:04;8.63;;;4.63;;
63286;SDS011;49410;55.708;37.522;2022-08-19T09:52:32;10.77;;;4.72;;
63286;SDS011;49410;55.708;37.522;2022-08-19T09:54:58;9.13;;;4.05;;
63286;SDS011;49410;55.708;37.522;2022-08-19T09:57:24;7.78;;;4.13;;
63286;SDS011;49410;55.708;37.522;2022-08-19T09:59:49;7.88;;;3.70;;
63286;SDS011;49410;55.708;37.522;2022-08-19T10:02:15;7.45;;;3.17;;
63286;SDS011;49410;55.708;37.522;2022-08-19T10:04:40;14.30;;;3.45;;
63286;SDS011;49410;55.708;37.522;2022-08-19T10:07:24;12.85;;;3.00;;
63286;SDS011;49410;55.708;37.522;2022-08-19T10:09:49;12.45;;;2.75;;
63286;SDS011;49410;55.708;37.522;2022-08-19T10:12:15;11.13;;;3.08;;
63286;SDS011;49410;55.708;37.522;2022-08-19T10:14:41;10.93;;;2.83;;
63286;SDS011;49410;55.708;37.522;2022-08-19T10:17:07;9.48;;;3.08;;
63286;SDS011;49410;55.708;37.522;2022-08-19T10:19:34;6.50;;;3.15;;
63286;SDS011;49410;55.708;37.522;2022-08-19T10:22:05;7.68;;;2.95;;
63286;SDS011;49410;55.708;37.522;2022-08-19T10:24:32;7.80;;;2.95;;
63286;SDS011;49410;55.708;37.522;2022-08-19T10:26:59;10.98;;;3.05;;
63286;SDS011;49410;55.708;37.522;2022-08-19T10:29:28;10.65;;;3.08;;
63286;SDS011;49410;55.708;37.522;2022-08-19T10:31:54;12.63;;;2.92;;
63286;SDS011;49410;55.708;37.522;2022-08-19T10:34:21;8.02;;;2.67;;
63286;SDS011;49410;55.708;37.522;2022-08-19T10:36:46;9.20;;;3.03;;
63286;SDS011;49410;55.708;37.522;2022-08-19T10:39:12;8.85;;;2.65;;
63286;SDS011;49410;55.708;37.522;2022-08-19T10:41:38;12.35;;;3.00;;
63286;SDS011;49410;55.708;37.522;2022-08-19T10:44:06;14.60;;;3.13;;
63286;SDS011;49410;55.708;37.522;2022-08-19T10:46:36;7.38;;;2.92;;
63286;SDS011;49410;55.708;37.522;2022-08-19T10:49:06;9.68;;;2.70;;
63286;SDS011;49410;55.708;37.522;2022-08-19T10:51:33;9.48;;;3.28;;
63286;SDS011;49410;55.708;37.522;2022-08-19T10:54:17;9.63;;;2.65;;
63286;SDS011;49410;55.708;37.522;2022-08-19T10:56:43;8.73;;;2.70;;
63286;SDS011;49410;55.708;37.522;2022-08-19T10:59:22;10.05;;;2.60;;
63286;SDS011;49410;55.708;37.522;2022-08-19T11:01:49;6.18;;;2.65;;
63286;SDS011;49410;55.708;37.522;2022-08-19T11:04:15;14.25;;;3.28;;
63286;SDS011;49410;55.708;37.522;2022-08-19T11:06:43;7.85;;;2.92;;
63286;SDS011;49410;55.708;37.522;2022-08-19T11:09:08;5.30;;;2.53;;
63286;SDS011;49410;55.708;37.522;2022-08-19T11:11:34;7.93;;;2.60;;
63286;SDS011;49410;55.708;37.522;2022-08-19T11:14:06;8.73;;;2.50;;
63286;SDS011;49410;55.708;37.522;2022-08-19T11:16:33;9.82;;;2.92;;
63286;SDS011;49410;55.708;37.522;2022-08-19T11:18:59;9.60;;;3.30;;
63286;SDS011;49410;55.708;37.522;2022-08-19T11:21:29;9.43;;;2.65;;
63286;SDS011;49410;55.708;37.522;2022-08-19T11:23:57;5.68;;;2.58;;
63286;SDS011;49410;55.708;37.522;2022-08-19T11:26:25;5.95;;;2.90;;
63286;SDS011;49410;55.708;37.522;2022-08-19T11:28:51;6.40;;;2.70;;
63286;SDS011;49410;55.708;37.522;2022-08-19T11:31:20;8.13;;;3.10;;
63286;SDS011;49410;55.708;37.522;2022-08-19T11:33:48;14.40;;;2.63;;
63286;SDS011;49410;55.708;37.522;2022-08-19T11:36:17;11.07;;;3.10;;
63286;SDS011;49410;55.708;37.522;2022-08-19T11:38:43;6.75;;;2.33;;
63286;SDS011;49410;55.708;37.522;2022-08-19T11:41:10;8.23;;;2.55;;
63286;SDS011;49410;55.708;37.522;2022-08-19T11:43:36;10.32;;;3.10;;
63286;SDS011;49410;55.708;37.522;2022-08-19T11:46:06;5.80;;;2.70;;
63286;SDS011;49410;55.708;37.522;2022-08-19T11:48:34;10.73;;;2.58;;
63286;SDS011;49410;55.708;37.522;2022-08-19T11:51:02;9.13;;;2.88;;
63286;SDS011;49410;55.708;37.522;2022-08-19T11:53:31;5.28;;;2.67;;
63286;SDS011;49410;55.708;37.522;2022-08-19T11:55:57;7.05;;;2.97;;
63286;SDS011;49410;55.708;37.522;2022-08-19T11:58:22;7.32;;;2.72;;
63286;SDS011;49410;55.708;37.522;2022-08-19T12:00:50;8.27;;;2.80;;
63286;SDS011;49410;55.708;37.522;2022-08-19T12:03:15;8.48;;;3.08;;
63286;SDS011;49410;55.708;37.522;2022-08-19T12:05:41;5.97;;;2.63;;
63286;SDS011;49410;55.708;37.522;2022-08-19T12:08:07;7.75;;;3.38;;
63286;SDS011;49410;55.708;37.522;2022-08-19T12:10:33;9.52;;;3.20;;
63286;SDS011;49410;55.708;37.522;2022-08-19T12:13:00;9.23;;;3.47;;
63286;SDS011;49410;55.708;37.522;2022-08-19T12:15:26;6.88;;;2.95;;
63286;SDS011;49410;55.708;37.522;2022-08-19T12:17:56;9.30;;;3.40;;
63286;SDS011;49410;55.708;37.522;2022-08-19T12:20:22;7.45;;;3.17;;
63286;SDS011;49410;55.708;37.522;2022-08-19T12:22:48;8.23;;;3.67;;
63286;SDS011;49410;55.708;37.522;2022-08-19T12:25:14;9.70;;;3.40;;
63286;SDS011;49410;55.708;37.522;2022-08-19T12:27:40;9.63;;;3.70;;
63286;SDS011;49410;55.708;37.522;2022-08-19T12:30:06;7.65;;;3.13;;
63286;SDS011;49410;55.708;37.522;2022-08-19T12:32:34;12.95;;;3.95;;
63286;SDS011;49410;55.708;37.522;2022-08-19T12:35:00;8.70;;;3.80;;
63286;SDS011;49410;55.708;37.522;2022-08-19T12:37:26;10.45;;;3.85;;
63286;SDS011;49410;55.708;37.522;2022-08-19T12:39:51;10.55;;;3.65;;
63286;SDS011;49410;55.708;37.522;2022-08-19T12:42:17;8.00;;;3.33;;
63286;SDS011;49410;55.708;37.522;2022-08-19T12:44:43;12.25;;;3.38;;
63286;SDS011;49410;55.708;37.522;2022-08-19T12:47:10;10.48;;;3.42;;
63286;SDS011;49410;55.708;37.522;2022-08-19T12:49:38;9.00;;;3.88;;
63286;SDS011;49410;55.708;37.522;2022-08-19T12:52:06;7.95;;;3.28;;
63286;SDS011;49410;55.708;37.522;2022-08-19T12:54:33;10.07;;;3.50;;
63286;SDS011;49410;55.708;37.522;2022-08-19T12:56:59;17.40;;;4.38;;
63286;SDS011;49410;55.708;37.522;2022-08-19T12:59:25;10.48;;;3.20;;
63286;SDS011;49410;55.708;37.522;2022-08-19T13:01:52;8.13;;;3.65;;
63286;SDS011;49410;55.708;37.522;2022-08-19T13:04:18;8.57;;;3.47;;
63286;SDS011;49410;55.708;37.522;2022-08-19T13:06:43;9.02;;;3.45;;
63286;SDS011;49410;55.708;37.522;2022-08-19T13:09:09;8.65;;;3.80;;
63286;SDS011;49410;55.708;37.522;2022-08-19T13:11:36;9.52;;;3.05;;
63286;SDS011;49410;55.708;37.522;2022-08-19T13:14:02;13.82;;;3.75;;
63286;SDS011;49410;55.708;37.522;2022-08-19T13:16:28;9.23;;;3.20;;
63286;SDS011;49410;55.708;37.522;2022-08-19T13:18:54;8.65;;;3.83;;
63286;SDS011;49410;55.708;37.522;2022-08-19T13:21:22;8.90;;;3.60;;
63286;SDS011;49410;55.708;37.522;2022-08-19T13:23:50;9.82;;;4.70;;
63286;SDS011;49410;55.708;37.522;2022-08-19T13:26:16;8.68;;;5.13;;
63286;SDS011;49410;55.708;37.522;2022-08-19T13:28:43;12.60;;;4.50;;
63286;SDS011;49410;55.708;37.522;2022-08-19T13:31:29;11.88;;;5.88;;
63286;SDS011;49410;55.708;37.522;2022-08-19T13:34:15;14.70;;;7.40;;
63286;SDS011;49410;55.708;37.522;2022-08-19T13:36:42;11.48;;;4.80;;
63286;SDS011;49410;55.708;37.522;2022-08-19T13:39:09;10.55;;;5.68;;
63286;SDS011;49410;55.708;37.522;2022-08-19T13:41:35;12.45;;;4.25;;
63286;SDS011;49410;55.708;37.522;2022-08-19T13:44:02;13.30;;;4.90;;
63286;SDS011;49410;55.708;37.522;2022-08-19T13:46:29;11.63;;;3.92;;
63286;SDS011;49410;55.708;37.522;2022-08-19T13:48:55;8.73;;;4.00;;
63286;SDS011;49410;55.708;37.522;2022-08-19T13:51:22;10.18;;;3.60;;
63286;SDS011;49410;55.708;37.522;2022-08-19T13:53:48;8.95;;;3.88;;
63286;SDS011;49410;55.708;37.522;2022-08-19T13:56:15;11.52;;;3.90;;
63286;SDS011;49410;55.708;37.522;2022-08-19T13:58:42;10.05;;;3.92;;
63286;SDS011;49410;55.708;37.522;2022-08-19T14:01:09;12.10;;;3.95;;
63286;SDS011;49410;55.708;37.522;2022-08-19T14:03:35;9.68;;;3.30;;
63286;SDS011;49410;55.708;37.522;2022-08-19T14:06:01;9.55;;;3.28;;
63286;SDS011;49410;55.708;37.522;2022-08-19T14:08:27;12.13;;;3.75;;
63286;SDS011;49410;55.708;37.522;2022-08-19T14:10:56;11.02;;;4.10;;
63286;SDS011;49410;55.708;37.522;2022-08-19T14:13:22;9.13;;;5.05;;
63286;SDS011;49410;55.708;37.522;2022-08-19T14:15:49;14.85;;;8.88;;
63286;SDS011;49410;55.708;37.522;2022-08-19T14:18:16;16.83;;;9.13;;
63286;SDS011;49410;55.708;37.522;2022-08-19T14:20:43;14.48;;;9.75;;
63286;SDS011;49410;55.708;37.522;2022-08-19T14:23:09;14.70;;;10.60;;
63286;SDS011;49410;55.708;37.522;2022-08-19T14:25:37;16.65;;;10.75;;
63286;SDS011;49410;55.708;37.522;2022-08-19T14:28:03;16.10;;;8.90;;
63286;SDS011;49410;55.708;37.522;2022-08-19T14:30:32;15.68;;;8.00;;
63286;SDS011;49410;55.708;37.522;2022-08-19T14:33:02;12.70;;;7.93;;
63286;SDS011;49410;55.708;37.522;2022-08-19T14:35:30;15.32;;;9.45;;
63286;SDS011;49410;55.708;37.522;2022-08-19T14:37:59;18.73;;;11.13;;
63286;SDS011;49410;55.708;37.522;2022-08-19T14:40:26;17.63;;;10.98;;
63286;SDS011;49410;55.708;37.522;2022-08-19T14:42:54;22.85;;;12.45;;